createdAt,value
2022-08-12T00:01:12.264Z,3.10
2022-08-12T00:03:57.874Z,2.90
2022-08-12T00:06:46.744Z,2.90
2022-08-12T00:09:32.763Z,2.97
2022-08-12T00:12:18.364Z,2.90
2022-08-12T00:15:04.599Z,3.43
2022-08-12T00:17:50.712Z,3.10
2022-08-12T00:20:36.497Z,3.00
2022-08-12T00:23:23.828Z,2.90
2022-08-12T00:26:23.822Z,3.20
2022-08-12T00:29:12.524Z,2.67
2022-08-12T00:32:00.165Z,2.57
2022-08-12T00:34:48.543Z,2.97
2022-08-12T00:37:39.438Z,3.27
2022-08-12T00:40:29.119Z,3.07
2022-08-12T00:42:57.809Z,2.77
2022-08-12T00:45:25.578Z,2.77
2022-08-12T00:47:54.296Z,3.10
2022-08-12T00:50:22.609Z,2.90
2022-08-12T00:52:52.252Z,2.90
2022-08-12T00:55:20.354Z,2.97
2022-08-12T00:57:50.817Z,2.67
2022-08-12T01:00:24.036Z,2.70
2022-08-12T01:02:57.569Z,3.67
2022-08-12T01:05:45.250Z,2.83
2022-08-12T01:08:50.786Z,2.90
2022-08-12T01:11:32.724Z,3.00
2022-08-12T01:14:02.014Z,3.10
2022-08-12T01:16:30.065Z,2.83
2022-08-12T01:18:58.343Z,2.77
2022-08-12T01:21:28.095Z,3.00
2022-08-12T01:24:33.894Z,3.07
2022-08-12T01:27:07.671Z,3.10
2022-08-12T01:29:43.871Z,3.47
2022-08-12T01:32:14.727Z,2.83
2022-08-12T01:35:13.835Z,2.67
2022-08-12T01:38:08.421Z,2.77
2022-08-12T01:40:40.423Z,2.80
2022-08-12T01:43:16.539Z,2.97
2022-08-12T01:46:15.030Z,3.07
2022-08-12T01:49:07.491Z,3.20
2022-08-12T01:52:20.212Z,2.97
2022-08-12T01:54:43.875Z,2.77
2022-08-12T01:57:59.169Z,2.83
2022-08-12T02:00:19.708Z,2.80
2022-08-12T02:03:27.779Z,2.93
2022-08-12T02:06:27.523Z,3.63
2022-08-12T02:09:22.387Z,3.00
2022-08-12T02:12:06.227Z,2.93
2022-08-12T02:15:13.100Z,4.40
2022-08-12T02:18:25.476Z,3.60
2022-08-12T02:21:12.440Z,2.63
2022-08-12T02:23:41.201Z,3.37
2022-08-12T02:26:09.671Z,3.40
2022-08-12T02:28:40.196Z,2.93
2022-08-12T02:31:09.076Z,2.70
2022-08-12T02:33:37.952Z,2.63
2022-08-12T02:36:05.878Z,3.10
2022-08-12T02:38:33.901Z,3.40
2022-08-12T02:41:05.387Z,3.27
2022-08-12T02:44:00.166Z,3.10
2022-08-12T02:46:34.340Z,3.40
2022-08-12T02:49:10.159Z,3.60
2022-08-12T02:51:44.273Z,3.60
2022-08-12T02:54:11.903Z,3.30
2022-08-12T02:56:42.165Z,3.77
2022-08-12T02:59:23.089Z,3.83
2022-08-12T03:01:57.281Z,3.57
2022-08-12T03:04:38.024Z,3.60
2022-08-12T03:07:29.600Z,3.73
2022-08-12T03:10:18.151Z,3.60
2022-08-12T03:13:04.656Z,3.57
2022-08-12T03:15:31.723Z,3.30
2022-08-12T03:18:25.392Z,3.73
2022-08-12T03:20:55.309Z,3.03
2022-08-12T03:23:30.166Z,3.60
2022-08-12T03:26:03.183Z,3.83
2022-08-12T03:28:54.129Z,3.70
2022-08-12T03:31:29.730Z,3.03
2022-08-12T03:34:13.632Z,3.70
2022-08-12T03:36:42.321Z,3.03
2022-08-12T03:39:36.849Z,3.20
2022-08-12T03:42:30.364Z,2.90
2022-08-12T03:45:51.509Z,3.50
2022-08-12T03:48:39.011Z,3.60
2022-08-12T03:51:25.117Z,3.20
2022-08-12T03:54:11.757Z,3.63
2022-08-12T03:56:58.259Z,3.33
2022-08-12T03:59:44.106Z,3.63
2022-08-12T04:02:18.067Z,3.60
2022-08-12T04:04:46.476Z,4.43
2022-08-12T04:07:16.255Z,3.70
2022-08-12T04:09:47.034Z,3.63
2022-08-12T04:12:33.638Z,3.17
2022-08-12T04:15:01.923Z,4.27
2022-08-12T04:17:29.515Z,3.67
2022-08-12T04:19:58.117Z,4.17
2022-08-12T04:22:30.414Z,3.47
2022-08-12T04:25:01.194Z,3.93
2022-08-12T04:27:31.675Z,3.57
2022-08-12T04:30:29.101Z,4.00
2022-08-12T04:32:50.697Z,3.43
2022-08-12T04:35:18.413Z,3.13
2022-08-12T04:37:58.505Z,3.40
2022-08-12T04:40:33.226Z,3.23
2022-08-12T04:43:01.529Z,3.80
2022-08-12T04:45:30.422Z,3.87
2022-08-12T04:47:57.499Z,3.40
2022-08-12T04:50:27.262Z,2.93
2022-08-12T04:53:09.016Z,2.93
2022-08-12T04:55:38.896Z,2.93
2022-08-12T04:58:07.568Z,2.83
2022-08-12T05:00:37.440Z,2.90
2022-08-12T05:03:06.840Z,2.67
2022-08-12T05:05:36.443Z,3.53
2022-08-12T05:08:07.841Z,3.43
2022-08-12T05:10:36.010Z,2.87
2022-08-12T05:13:08.094Z,3.30
2022-08-12T05:15:47.649Z,3.00
2022-08-12T05:18:29.012Z,3.37
2022-08-12T05:20:59.087Z,2.67
2022-08-12T05:23:26.893Z,2.60
2022-08-12T05:25:57.900Z,2.80
2022-08-12T05:28:27.110Z,3.03
2022-08-12T05:30:55.607Z,3.30
2022-08-12T05:33:33.228Z,2.93
2022-08-12T05:36:00.239Z,3.50
2022-08-12T05:38:45.916Z,2.50
2022-08-12T05:41:21.841Z,2.50
2022-08-12T05:44:10.692Z,3.40
2022-08-12T05:46:37.929Z,2.90
2022-08-12T05:49:06.102Z,3.10
2022-08-12T05:51:41.214Z,2.20
2022-08-12T05:54:11.234Z,2.50
2022-08-12T05:56:40.124Z,3.03
2022-08-12T05:59:08.639Z,2.70
2022-08-12T06:02:09.139Z,2.43
2022-08-12T06:04:23.610Z,2.23
2022-08-12T06:06:53.468Z,2.90
2022-08-12T06:09:22.515Z,2.63
2022-08-12T06:12:05.662Z,2.10
2022-08-12T06:14:36.558Z,2.00
2022-08-12T06:17:05.897Z,1.90
2022-08-12T06:20:27.398Z,2.30
2022-08-12T06:22:19.882Z,2.40
2022-08-12T06:24:48.460Z,2.47
2022-08-12T06:27:18.403Z,1.70
2022-08-12T06:30:08.415Z,1.70
2022-08-12T06:32:32.392Z,1.87
2022-08-12T06:35:23.727Z,1.90
2022-08-12T06:37:56.764Z,1.50
2022-08-12T06:40:44.594Z,1.97
2022-08-12T06:43:13.160Z,1.33
2022-08-12T06:45:49.292Z,3.40
2022-08-12T06:48:17.358Z,1.50
2022-08-12T06:50:44.508Z,1.63
2022-08-12T06:53:11.830Z,1.60
2022-08-12T06:55:56.653Z,1.30
2022-08-12T06:58:29.323Z,1.13
2022-08-12T07:01:00.247Z,1.37
2022-08-12T07:03:28.831Z,1.10
2022-08-12T07:06:10.485Z,1.33
2022-08-12T07:08:38.586Z,1.20
2022-08-12T07:11:09.322Z,1.00
2022-08-12T07:14:11.681Z,1.07
2022-08-12T07:16:52.350Z,0.87
2022-08-12T07:19:20.795Z,1.17
2022-08-12T07:21:57.947Z,1.00
2022-08-12T07:24:29.861Z,1.40
2022-08-12T07:26:57.041Z,1.07
2022-08-12T07:29:58.114Z,1.20
2022-08-12T07:32:13.123Z,0.97
2022-08-12T07:34:42.348Z,0.90
2022-08-12T07:37:09.669Z,0.97
2022-08-12T07:39:37.076Z,1.00
2022-08-12T07:42:18.897Z,1.00
2022-08-12T07:44:47.198Z,1.30
2022-08-12T07:47:18.739Z,1.20
2022-08-12T07:50:04.590Z,0.90
2022-08-12T07:52:39.723Z,0.77
2022-08-12T07:55:07.679Z,1.03
2022-08-12T07:57:48.571Z,0.77
2022-08-12T08:00:16.416Z,0.87
2022-08-12T08:02:43.415Z,1.37
2022-08-12T08:05:10.373Z,0.77
2022-08-12T08:07:37.333Z,0.97
2022-08-12T08:10:10.853Z,1.00
2022-08-12T08:12:58.902Z,0.73
2022-08-12T08:16:01.632Z,1.00
2022-08-12T08:18:27.479Z,0.80
2022-08-12T08:20:56.968Z,0.70
2022-08-12T08:23:46.451Z,0.87
2022-08-12T08:26:18.036Z,0.93
2022-08-12T08:28:45.018Z,0.70
2022-08-12T08:31:13.997Z,0.70
2022-08-12T08:34:09.719Z,0.97
2022-08-12T08:36:29.167Z,0.70
2022-08-12T08:38:58.188Z,0.60
2022-08-12T08:42:18.805Z,0.70
2022-08-12T08:44:36.394Z,0.70
2022-08-12T08:47:05.596Z,0.60
2022-08-12T08:49:32.794Z,0.70
2022-08-12T08:52:06.143Z,0.77
2022-08-12T08:54:37.710Z,0.50
2022-08-12T08:57:08.106Z,0.60
2022-08-12T08:59:35.509Z,0.60
2022-08-12T09:02:02.661Z,0.70
2022-08-12T09:05:11.268Z,0.60
2022-08-12T09:07:51.268Z,0.60
2022-08-12T09:10:15.514Z,0.60
2022-08-12T09:13:23.261Z,0.70
2022-08-12T09:15:57.692Z,0.63
2022-08-12T09:18:33.185Z,0.90
2022-08-12T09:21:02.280Z,0.60
2022-08-12T09:23:57.083Z,0.73
2022-08-12T09:26:19.138Z,0.70
2022-08-12T09:28:52.905Z,0.70
2022-08-12T09:32:03.990Z,0.60
2022-08-12T09:34:25.546Z,0.63
2022-08-12T09:36:59.906Z,0.90
2022-08-12T09:40:03.107Z,0.70
2022-08-12T09:42:43.300Z,0.60
2022-08-12T09:45:24.483Z,0.80
2022-08-12T09:48:09.936Z,0.70
2022-08-12T09:50:55.295Z,0.80
2022-08-12T09:53:29.441Z,0.60
2022-08-12T09:56:58.499Z,0.63
2022-08-12T09:58:59.774Z,2.47
2022-08-12T10:01:34.988Z,1.30
2022-08-12T10:04:19.121Z,0.70
2022-08-12T10:06:55.475Z,0.60
2022-08-12T10:09:57.430Z,0.60
2022-08-12T10:12:33.092Z,0.90
2022-08-12T10:15:02.032Z,0.60
2022-08-12T10:17:29.248Z,0.93
2022-08-12T10:19:59.631Z,0.83
2022-08-12T10:22:39.664Z,0.70
2022-08-12T10:26:36.103Z,1.07
2022-08-12T10:28:38.130Z,1.17
2022-08-12T10:31:06.633Z,0.70
2022-08-12T10:33:54.934Z,0.63
2022-08-12T10:36:40.218Z,0.90
2022-08-12T10:40:00.915Z,1.07
2022-08-12T10:42:30.033Z,0.73
2022-08-12T10:45:04.496Z,0.70
2022-08-12T10:48:07.036Z,0.83
2022-08-12T10:50:35.791Z,0.77
2022-08-12T10:53:11.872Z,1.00
2022-08-12T10:55:48.990Z,1.17
2022-08-12T10:58:30.844Z,0.77
2022-08-12T11:01:49.911Z,0.80
2022-08-12T11:04:25.451Z,0.80
2022-08-12T11:07:05.911Z,0.93
2022-08-12T11:09:41.923Z,0.90
2022-08-12T11:12:57.084Z,1.50
2022-08-12T11:15:14.697Z,1.13
2022-08-12T11:17:52.486Z,0.80
2022-08-12T11:20:24.510Z,1.33
2022-08-12T11:23:03.909Z,0.80
2022-08-12T11:25:57.902Z,1.30
2022-08-12T11:28:33.823Z,1.07
2022-08-12T11:31:03.287Z,1.40
2022-08-12T11:34:04.320Z,1.07
2022-08-12T11:36:21.940Z,1.00
2022-08-12T11:38:51.370Z,1.40
2022-08-12T11:41:31.216Z,1.40
2022-08-12T11:44:35.187Z,1.33
2022-08-12T11:46:52.937Z,1.43
2022-08-12T11:49:30.496Z,1.40
2022-08-12T11:51:59.736Z,1.10
2022-08-12T11:54:29.436Z,1.30
2022-08-12T11:56:59.879Z,1.10
2022-08-12T12:02:20.237Z,1.40
2022-08-12T12:04:52.544Z,1.10
2022-08-12T12:08:38.851Z,1.23
2022-08-12T12:10:13.125Z,1.20
2022-08-12T12:12:49.632Z,1.20
2022-08-12T12:15:25.149Z,0.70
2022-08-12T12:17:55.087Z,0.90
2022-08-12T12:20:26.063Z,1.17
2022-08-12T12:22:54.882Z,0.93
2022-08-12T12:25:59.354Z,1.50
2022-08-12T12:28:09.152Z,1.03
2022-08-12T12:30:56.123Z,0.90
2022-08-12T12:33:23.266Z,1.27
2022-08-12T12:36:20.011Z,1.10
2022-08-12T12:38:37.324Z,1.33
2022-08-12T12:41:16.512Z,1.13
2022-08-12T12:43:45.091Z,1.97
2022-08-12T12:46:31.067Z,0.90
2022-08-12T12:48:58.153Z,1.20
2022-08-12T12:52:06.739Z,0.93
2022-08-12T12:54:12.773Z,0.90
2022-08-12T12:56:44.365Z,1.40
2022-08-12T12:59:35.011Z,1.20
2022-08-12T13:02:07.658Z,1.03
2022-08-12T13:04:37.183Z,1.00
2022-08-12T13:07:05.959Z,1.20
2022-08-12T13:09:36.504Z,1.03
2022-08-12T13:12:08.943Z,1.03
2022-08-12T13:14:39.830Z,0.80
2022-08-12T13:17:11.366Z,1.03
2022-08-12T13:19:45.370Z,1.20
2022-08-12T13:22:21.472Z,0.93
2022-08-12T13:24:56.013Z,1.10
2022-08-12T13:27:48.282Z,1.20
2022-08-12T13:30:23.844Z,1.03
2022-08-12T13:32:58.747Z,1.27
2022-08-12T13:36:05.899Z,1.00
2022-08-12T13:38:34.459Z,0.80
2022-08-12T13:41:03.896Z,1.20
2022-08-12T13:43:41.041Z,1.30
2022-08-12T13:46:12.461Z,1.30
2022-08-12T13:48:44.963Z,1.30
2022-08-12T13:51:14.174Z,1.00
2022-08-12T13:53:58.354Z,0.97
2022-08-12T13:56:35.083Z,1.30
2022-08-12T13:59:07.934Z,1.00
2022-08-12T14:01:40.600Z,1.50
2022-08-12T14:04:11.971Z,1.07
2022-08-12T14:06:40.747Z,1.30
2022-08-12T14:09:15.585Z,1.53
2022-08-12T14:11:48.477Z,1.03
2022-08-12T14:14:31.325Z,1.10
2022-08-12T14:17:05.450Z,1.07
2022-08-12T14:19:35.988Z,1.07
2022-08-12T14:22:06.752Z,1.30
2022-08-12T14:24:40.450Z,0.90
2022-08-12T14:27:10.617Z,1.10
2022-08-12T14:30:06.193Z,1.20
2022-08-12T14:32:39.023Z,1.10
2022-08-12T14:35:09.667Z,1.20
2022-08-12T14:37:57.362Z,1.10
2022-08-12T14:40:29.964Z,1.10
2022-08-12T14:42:59.684Z,1.23
2022-08-12T14:45:37.043Z,1.20
2022-08-12T14:48:13.682Z,1.27
2022-08-12T14:51:02.563Z,0.97
2022-08-12T14:57:05.602Z,2.10
2022-08-12T14:59:27.130Z,1.30
2022-08-12T15:02:21.041Z,1.30
2022-08-12T15:04:59.176Z,1.27
2022-08-12T15:07:32.838Z,0.97
2022-08-12T15:10:10.847Z,1.10
2022-08-12T15:12:41.072Z,1.30
2022-08-12T15:15:10.542Z,1.20
2022-08-12T15:17:39.083Z,1.10
2022-08-12T15:20:32.312Z,1.27
2022-08-12T15:22:57.841Z,1.13
2022-08-12T15:25:26.359Z,1.47
2022-08-12T15:28:05.474Z,0.90
2022-08-12T15:30:41.008Z,1.20
2022-08-12T15:33:12.841Z,0.80
2022-08-12T15:35:52.010Z,1.23
2022-08-12T15:38:25.061Z,0.97
2022-08-12T15:40:55.067Z,1.57
2022-08-12T15:43:27.346Z,1.37
2022-08-12T15:46:15.825Z,1.40
2022-08-12T15:48:46.431Z,0.80
2022-08-12T15:51:58.112Z,1.50
2022-08-12T15:54:30.985Z,1.20
2022-08-12T15:57:08.339Z,1.57
2022-08-12T16:00:00.540Z,1.00
2022-08-12T16:02:27.074Z,1.27
2022-08-12T16:04:56.307Z,1.30
2022-08-12T16:07:29.688Z,1.20
2022-08-12T16:10:07.089Z,1.40
2022-08-12T16:12:54.943Z,1.33
2022-08-12T16:15:26.475Z,1.60
2022-08-12T16:18:18.915Z,1.77
2022-08-12T16:20:46.720Z,1.07
2022-08-12T16:23:36.127Z,1.43
2022-08-12T16:26:14.941Z,1.10
2022-08-12T16:28:47.131Z,1.40
2022-08-12T16:31:22.730Z,1.20
2022-08-12T16:33:58.654Z,1.70
2022-08-12T16:36:29.328Z,1.80
2022-08-12T16:38:56.646Z,1.80
2022-08-12T16:41:24.154Z,2.40
2022-08-12T16:43:53.399Z,1.40
2022-08-12T16:46:31.338Z,1.47
2022-08-12T16:49:09.381Z,2.00
2022-08-12T16:51:46.434Z,2.00
2022-08-12T16:54:21.930Z,1.80
2022-08-12T16:56:57.561Z,1.37
2022-08-12T16:59:53.662Z,1.97
2022-08-12T17:02:31.546Z,1.80
2022-08-12T17:05:04.600Z,1.80
2022-08-12T17:07:38.152Z,1.87
2022-08-12T17:10:13.941Z,1.93
2022-08-12T17:12:45.655Z,1.63
2022-08-12T17:15:51.169Z,2.23
2022-08-12T17:18:38.972Z,1.90
2022-08-12T17:20:51.414Z,1.93
2022-08-12T17:23:19.634Z,1.80
2022-08-12T17:25:52.905Z,1.90
2022-08-12T17:28:22.564Z,2.03
2022-08-12T17:30:51.252Z,2.07
2022-08-12T17:33:27.660Z,2.60
2022-08-12T17:35:58.605Z,2.00
2022-08-12T17:38:25.628Z,2.87
2022-08-12T17:40:54.769Z,1.70
2022-08-12T17:43:57.797Z,2.80
2022-08-12T17:46:12.745Z,2.03
2022-08-12T17:48:54.962Z,2.47
2022-08-12T17:51:24.543Z,1.97
2022-08-12T17:54:11.773Z,2.63
2022-08-12T17:56:41.141Z,2.60
2022-08-12T17:59:12.631Z,2.80
2022-08-12T18:01:45.338Z,2.23
2022-08-12T18:04:23.272Z,2.33
2022-08-12T18:07:02.896Z,2.87
2022-08-12T18:09:36.830Z,3.00
2022-08-12T18:12:24.273Z,2.70
2022-08-12T18:15:03.037Z,2.60
2022-08-12T18:17:46.961Z,3.40
2022-08-12T18:20:18.144Z,2.50
2022-08-12T18:22:55.668Z,2.97
2022-08-12T18:26:16.805Z,2.93
2022-08-12T18:28:35.959Z,3.47
2022-08-12T18:31:03.844Z,3.07
2022-08-12T18:33:43.852Z,3.67
2022-08-12T18:36:14.550Z,2.77
2022-08-12T18:38:58.251Z,3.20
2022-08-12T18:41:33.468Z,3.10
2022-08-12T18:44:10.153Z,3.27
2022-08-12T18:46:53.656Z,3.40
2022-08-12T18:49:38.573Z,3.30
2022-08-12T18:52:07.966Z,2.60
2022-08-12T18:54:49.344Z,4.30
2022-08-12T18:58:06.404Z,3.03
2022-08-12T19:00:22.195Z,3.87
2022-08-12T19:02:53.053Z,3.00
2022-08-12T19:05:20.951Z,3.70
2022-08-12T19:08:01.178Z,3.10
2022-08-12T19:10:31.708Z,3.00
2022-08-12T19:13:23.610Z,3.27
2022-08-12T19:15:58.282Z,3.53
2022-08-12T19:18:30.936Z,4.20
2022-08-12T19:21:11.822Z,4.30
2022-08-12T19:23:43.642Z,3.10
2022-08-12T19:26:12.743Z,5.00
2022-08-12T19:28:41.374Z,4.40
2022-08-12T19:31:56.661Z,4.73
2022-08-12T19:36:06.541Z,4.67
2022-08-12T19:38:03.530Z,5.97
2022-08-12T19:40:34.879Z,7.07
2022-08-12T19:43:20.037Z,6.90
2022-08-12T19:45:56.519Z,6.80
2022-08-12T19:48:33.090Z,7.13
2022-08-12T19:51:09.172Z,7.67
2022-08-12T19:53:57.461Z,7.17
2022-08-12T19:56:29.828Z,10.50
2022-08-12T19:59:18.663Z,7.30
2022-08-12T20:02:02.503Z,7.47
2022-08-12T20:04:37.508Z,7.80
2022-08-12T20:07:09.260Z,7.87
2022-08-12T20:09:53.892Z,7.37
2022-08-12T20:12:30.892Z,7.20
2022-08-12T20:15:05.300Z,6.27
2022-08-12T20:17:36.273Z,7.57
2022-08-12T20:20:21.237Z,7.20
2022-08-12T20:22:55.772Z,5.97
2022-08-12T20:25:27.979Z,6.90
2022-08-12T20:28:09.856Z,6.20
2022-08-12T20:30:53.571Z,6.93
2022-08-12T20:33:50.390Z,5.90
2022-08-12T20:36:41.769Z,6.60
2022-08-12T20:39:06.122Z,5.57
2022-08-12T20:41:58.620Z,6.30
2022-08-12T20:44:26.772Z,6.90
2022-08-12T20:46:58.169Z,6.23
2022-08-12T20:49:25.551Z,5.63
2022-08-12T20:51:59.406Z,5.97
2022-08-12T20:54:33.906Z,6.80
2022-08-12T20:57:07.423Z,7.50
2022-08-12T20:59:39.948Z,6.30
2022-08-12T21:02:15.304Z,5.10
2022-08-12T21:05:00.937Z,6.07
2022-08-12T21:07:28.931Z,5.70
2022-08-12T21:10:03.423Z,5.57
2022-08-12T21:12:34.296Z,10.90
2022-08-12T21:15:17.628Z,5.43
2022-08-12T21:18:10.892Z,5.00
2022-08-12T21:20:55.787Z,5.93
2022-08-12T21:23:23.776Z,6.73
2022-08-12T21:25:56.725Z,7.30
2022-08-12T21:28:30.988Z,5.47
2022-08-12T21:32:34.710Z,7.83
2022-08-12T21:34:07.920Z,6.63
2022-08-12T21:36:48.065Z,6.90
2022-08-12T21:39:35.548Z,5.97
2022-08-12T21:42:07.415Z,6.07
2022-08-12T21:45:45.776Z,6.47
2022-08-12T21:47:25.311Z,5.60
2022-08-12T21:50:03.119Z,5.53
2022-08-12T21:52:40.873Z,5.70
2022-08-12T21:55:18.164Z,4.70
2022-08-12T21:57:53.414Z,4.00
2022-08-12T22:00:32.599Z,4.40
2022-08-12T22:04:02.204Z,4.03
2022-08-12T22:06:20.267Z,4.70
2022-08-12T22:09:02.231Z,4.73
2022-08-12T22:11:41.016Z,3.83
2022-08-12T22:14:18.029Z,3.77
2022-08-12T22:16:53.597Z,3.83
2022-08-12T22:19:22.849Z,3.40
2022-08-12T22:21:53.134Z,3.40
2022-08-12T22:24:26.997Z,4.07
2022-08-12T22:27:31.254Z,3.90
2022-08-12T22:30:16.969Z,3.80
2022-08-12T22:32:49.744Z,3.67
2022-08-12T22:35:55.616Z,3.60
2022-08-12T22:38:25.995Z,3.90
2022-08-12T22:41:27.678Z,3.97
2022-08-12T22:44:14.147Z,3.63
2022-08-12T22:47:00.545Z,3.80
2022-08-12T22:49:48.826Z,4.00
2022-08-12T22:52:23.174Z,3.80
2022-08-12T22:55:02.643Z,4.47
2022-08-12T22:57:53.426Z,4.13
2022-08-12T23:00:24.183Z,4.03
2022-08-12T23:03:02.688Z,4.00
2022-08-12T23:05:57.130Z,3.83
2022-08-12T23:08:22.807Z,3.50
2022-08-12T23:10:50.725Z,3.30
2022-08-12T23:13:43.965Z,3.90
2022-08-12T23:16:28.031Z,3.90
2022-08-12T23:18:59.012Z,3.93
2022-08-12T23:22:03.969Z,3.37
2022-08-12T23:24:14.419Z,4.03
2022-08-12T23:27:03.631Z,4.80
2022-08-12T23:29:43.245Z,4.97
2022-08-12T23:32:13.455Z,4.57
2022-08-12T23:35:02.651Z,4.60
2022-08-12T23:37:46.454Z,5.20
2022-08-12T23:40:18.043Z,4.23
2022-08-12T23:42:46.655Z,3.43
2022-08-12T23:45:18.971Z,5.00
2022-08-12T23:47:53.072Z,3.57
2022-08-12T23:50:23.150Z,4.67
2022-08-12T23:52:53.361Z,3.87
2022-08-12T23:55:24.557Z,4.07
2022-08-12T23:58:21.078Z,3.93
